Time;durP1;ratioP1;P1;durP2;ratioP2;P2;SDS_P1;SDS_P2;PMS_P1;PMS_P2;Temp;Humidity;BMP_temperature;BMP_pressure;BME280_temperature;BME280_humidity;BME280_pressure;Samples;Min_cycle;Max_cycle;Signal;HPM_P1;HPM_P2
2023/08/19 00:04:29;;;;;;;12.32;10.95;;;;;;;-145.68;100.00;73363.88;10493922;28;20599;-76
2023/08/19 00:09:34;;;;;;;12.75;11.45;;;;;;;-145.68;100.00;73361.88;10493428;28;20236;-76
2023/08/19 00:14:36;;;;;;;13.38;11.98;;;;;;;-145.68;100.00;73357.88;10493113;28;20214;-76
2023/08/19 00:19:36;;;;;;;14.82;11.75;;;;;;;-145.68;100.00;73371.88;10491265;28;20191;-76
2023/08/19 00:24:36;;;;;;;14.43;11.48;;;;;;;-145.68;100.00;73371.88;10491183;28;20719;-76
2023/08/19 00:29:37;;;;;;;16.73;12.40;;;;;;;-145.68;100.00;73369.88;10491773;28;20277;-76
2023/08/19 00:34:37;;;;;;;12.23;10.73;;;;;;;-145.68;100.00;73357.88;10473228;28;20211;-76
2023/08/19 00:39:38;;;;;;;12.35;11.23;;;;;;;-145.68;100.00;73345.88;10456467;28;20678;-76
2023/08/19 00:44:38;;;;;;;12.35;11.02;;;;;;;-145.68;100.00;73319.91;10472905;28;20190;-76
2023/08/19 00:49:38;;;;;;;13.32;11.35;;;;;;;-145.68;100.00;73305.91;10472777;28;20221;-76
2023/08/19 00:54:39;;;;;;;14.40;10.45;;;;;;;-145.68;100.00;73295.94;10456837;28;20368;-76
2023/08/19 00:59:39;;;;;;;12.10;11.00;;;;;;;-145.68;100.00;73289.94;10471425;28;20670;-75
2023/08/19 01:04:40;;;;;;;13.32;10.90;;;;;;;-145.68;100.00;73273.94;10472434;28;20191;-74
2023/08/19 01:09:49;;;;;;;15.20;10.80;;;;;;;-145.68;100.00;73257.94;10470901;28;20194;-74
2023/08/19 01:15:07;;;;;;;13.43;9.65;;;;;;;-145.68;100.00;73247.97;10476794;28;20217;-74
2023/08/19 01:20:11;;;;;;;13.00;10.23;;;;;;;-145.68;100.00;73263.94;10478915;28;20199;-76
2023/08/19 01:25:12;;;;;;;14.93;11.10;;;;;;;-145.68;100.00;73257.94;10480236;28;20583;-76
2023/08/19 01:30:14;;;;;;;12.52;10.63;;;;;;;-145.68;100.00;73243.97;10480692;28;20183;-76
2023/08/19 01:35:15;;;;;;;11.55;10.45;;;;;;;-145.68;100.00;73221.97;10480445;28;20262;-76
2023/08/19 01:40:16;;;;;;;12.07;10.98;;;;;;;-145.68;100.00;73223.97;10463458;28;20191;-76
2023/08/19 01:45:17;;;;;;;13.50;10.45;;;;;;;-145.68;100.00;73227.97;10479797;28;20267;-76
2023/08/19 01:50:17;;;;;;;11.57;10.38;;;;;;;-145.68;100.00;73219.97;10479826;28;20215;-77
2023/08/19 01:55:18;;;;;;;13.10;10.57;;;;;;;-145.68;100.00;73213.97;10462752;28;20207;-76
2023/08/19 02:00:18;;;;;;;12.50;11.25;;;;;;;-145.68;100.00;73203.97;10478994;28;20647;-77
2023/08/19 02:05:19;;;;;;;11.60;10.32;;;;;;;-145.68;100.00;73190.00;10497403;28;20184;-76
2023/08/19 02:10:19;;;;;;;12.95;11.35;;;;;;;-145.68;100.00;73182.00;10496476;28;20183;-76
2023/08/19 02:15:19;;;;;;;12.23;11.02;;;;;;;-145.68;100.00;73180.00;10496914;28;20214;-76
2023/08/19 02:20:20;;;;;;;13.68;9.82;;;;;;;-145.68;100.00;73168.00;10478047;28;20191;-76
2023/08/19 02:25:20;;;;;;;11.82;10.38;;;;;;;-145.68;100.00;73172.00;10496047;28;20556;-76
2023/08/19 02:30:20;;;;;;;10.88;9.88;;;;;;;-145.68;100.00;73176.00;10478068;28;20186;-76
2023/08/19 02:35:21;;;;;;;11.25;10.10;;;;;;;-145.68;100.00;73186.00;10496000;28;20695;-77
2023/08/19 02:40:21;;;;;;;13.85;11.13;;;;;;;-145.68;100.00;73198.00;10495762;28;20236;-76
2023/08/19 02:45:22;;;;;;;13.38;10.65;;;;;;;-145.68;100.00;73198.00;10477817;28;20592;-76
2023/08/19 02:50:22;;;;;;;12.27;10.60;;;;;;;-145.68;100.00;73200.00;10495246;28;20588;-76
2023/08/19 02:55:22;;;;;;;14.82;10.63;;;;;;;-145.68;100.00;73213.97;10477244;28;20211;-76
2023/08/19 03:00:23;;;;;;;12.45;11.25;;;;;;;-145.68;100.00;73217.97;10476927;28;20587;-76
2023/08/19 03:05:23;;;;;;;16.38;11.63;;;;;;;-145.68;100.00;73203.97;10460467;28;20560;-74
2023/08/19 03:10:24;;;;;;;12.48;11.02;;;;;;;-145.68;100.00;73196.00;10446327;28;20184;-75
2023/08/19 03:15:24;;;;;;;15.95;10.60;;;;;;;-145.68;100.00;73184.00;10427921;28;20212;-75
2023/08/19 03:20:25;;;;;;;13.70;11.50;;;;;;;-145.68;100.00;73192.00;10427859;28;20241;-76
2023/08/19 03:25:26;;;;;;;15.00;10.48;;;;;;;-145.68;100.00;73201.97;10427147;28;20657;-76
2023/08/19 03:30:26;;;;;;;13.05;10.43;;;;;;;-145.68;100.00;73196.00;10427448;28;20188;-75
2023/08/19 03:35:27;;;;;;;12.70;11.35;;;;;;;-145.68;100.00;73200.00;10444219;28;20230;-75
2023/08/19 03:40:27;;;;;;;13.48;11.23;;;;;;;-145.68;100.00;73205.97;10426859;28;20187;-75
2023/08/19 03:45:27;;;;;;;13.68;11.40;;;;;;;-145.68;100.00;73201.97;10427113;28;20183;-76
2023/08/19 03:50:28;;;;;;;12.63;11.43;;;;;;;-145.68;100.00;73200.00;10409563;28;20215;-76
2023/08/19 03:55:29;;;;;;;12.95;10.60;;;;;;;-145.68;100.00;73215.97;10426563;28;20247;-75
2023/08/19 04:00:30;;;;;;;13.70;12.23;;;;;;;-145.68;100.00;73243.97;10443964;28;20527;-75
2023/08/19 04:05:30;;;;;;;12.18;10.95;;;;;;;-145.68;100.00;73231.97;10433271;28;20188;-75
2023/08/19 04:10:31;;;;;;;12.85;11.32;;;;;;;-145.68;100.00;73231.97;10488685;28;20221;-75
2023/08/19 04:15:33;;;;;;;15.35;11.23;;;;;;;-145.68;100.00;73223.97;10473960;28;20271;-75
2023/08/19 04:20:38;;;;;;;12.88;11.00;;;;;;;-145.68;100.00;73225.97;10473831;28;20187;-75
2023/08/19 04:25:38;;;;;;;12.35;10.65;;;;;;;-145.68;100.00;73217.97;10491196;28;20227;-74
2023/08/19 04:30:40;;;;;;;13.13;11.82;;;;;;;-145.68;100.00;73215.97;10473823;28;20694;-75
2023/08/19 04:35:41;;;;;;;13.88;11.00;;;;;;;-145.68;100.00;73205.97;10473206;28;20222;-75
2023/08/19 04:40:41;;;;;;;12.32;10.07;;;;;;;-145.68;100.00;73201.97;10472995;28;20567;-75
2023/08/19 04:45:42;;;;;;;14.48;10.73;;;;;;;-145.68;100.00;73198.00;10473110;28;20179;-75
2023/08/19 04:50:43;;;;;;;13.20;10.55;;;;;;;-145.68;100.00;73207.97;10472471;28;20646;-75
2023/08/19 04:55:45;;;;;;;12.95;11.65;;;;;;;-145.68;100.00;73201.97;10473454;28;20215;-76
2023/08/19 05:00:45;;;;;;;11.77;10.68;;;;;;;-145.68;100.00;73184.00;10472688;28;20187;-74
2023/08/19 05:05:46;;;;;;;13.60;10.20;;;;;;;-145.68;100.00;73160.00;10491017;28;20183;-75
2023/08/19 05:10:46;;;;;;;12.07;10.57;;;;;;;-145.68;100.00;73130.03;10454489;28;20196;-75
2023/08/19 05:15:47;;;;;;;16.15;9.90;;;;;;;-145.68;100.00;73100.06;10430868;28;20557;-75
2023/08/19 05:20:47;;;;;;;11.95;10.02;;;;;;;-145.68;100.00;73074.06;10449010;28;20184;-74
2023/08/19 05:25:48;;;;;;;11.20;10.05;;;;;;;-145.68;100.00;73040.09;10447322;28;20285;-75
2023/08/19 05:30:48;;;;;;;12.80;9.60;;;;;;;-145.68;100.00;73030.09;10452892;28;20183;-76
2023/08/19 05:35:49;;;;;;;12.38;9.57;;;;;;;-145.68;100.00;72996.13;10458277;28;20250;-76
2023/08/19 05:40:49;;;;;;;11.50;9.27;;;;;;;-145.68;100.00;72960.16;10505927;28;20543;-75
2023/08/19 05:45:50;;;;;;;16.90;9.40;;;;;;;-145.68;100.00;72926.19;10488476;28;20186;-75
2023/08/19 05:50:50;;;;;;;12.85;8.93;;;;;;;-145.68;98.49;72882.22;10483047;28;20187;-75
2023/08/19 05:55:51;;;;;;;9.70;8.60;;;;;;;-145.68;92.63;72808.28;10501501;28;20282;-76
2023/08/19 06:07:50;;;;;;;10.05;7.93;;;;;;;-145.68;76.70;72634.41;10477945;28;20200;-83
2023/08/19 06:13:28;;;;;;;;;;;;;;;;;;;;;
2023/08/19 06:19:05;;;;;;;;;;;;;;;;;;;;;
2023/08/19 06:25:30;;;;;;;;;;;;;;;;;;;;;
2023/08/19 06:30:16;;;;;;;8.65;7.07;;;;;;;-145.68;65.96;72404.59;10443634;28;20235;-83
2023/08/19 06:35:55;;;;;;;9.45;6.47;;;;;;;-145.68;62.01;72312.69;10466682;28;20559;-82
2023/08/19 06:41:20;;;;;;;8.45;6.50;;;;;;;-145.68;61.99;72270.72;10499831;28;20207;-82
2023/08/19 06:46:38;;;;;;;;;;;;;;;;;;;;;
2023/08/19 06:52:26;;;;;;;10.40;6.70;;;;;;;-145.68;56.47;72110.88;10465212;28;20246;-83
2023/08/19 06:57:32;;;;;;;9.98;6.18;;;;;;;-145.68;55.33;72096.88;10520242;28;20251;-82
2023/08/19 07:04:06;;;;;;;;;;;;;;;;;;;;;
2023/08/19 07:10:12;;;;;;;6.80;6.00;;;;;;;-145.68;54.83;72028.94;10448412;28;20194;-84
2023/08/19 07:15:31;;;;;;;;;;;;;;;;;;;;;
2023/08/19 07:21:50;;;;;;;;;;;;;;;;;;;;;
2023/08/19 07:46:48;;;;;;;5.32;4.82;;;;;;;-145.68;44.02;71747.25;10348718;23;20243;-67
2023/08/19 07:51:49;;;;;;;10.23;5.00;;;;;;;-145.68;41.94;71773.22;10492054;28;20187;-66
2023/08/19 07:56:53;;;;;;;5.30;4.57;;;;;;;-145.68;40.33;71615.38;10536077;28;20475;-68
2023/08/19 08:01:54;;;;;;;6.85;4.40;;;;;;;-145.68;41.21;71709.28;10533177;28;20278;-66
2023/08/19 08:06:55;;;;;;;4.75;4.25;;;;;;;-145.68;43.11;71849.13;10530790;28;20225;-66
2023/08/19 08:11:55;;;;;;;6.57;5.00;;;;;;;-145.68;42.32;71777.22;10514748;28;20279;-68
2023/08/19 08:16:56;;;;;;;4.40;4.10;;;;;;;-145.68;40.88;71633.34;10508310;28;20207;-68
2023/08/19 08:21:56;;;;;;;4.28;3.88;;;;;;;-145.68;38.58;71559.44;10520117;28;20201;-68
2023/08/19 08:26:57;;;;;;;5.00;4.50;;;;;;;-145.68;40.10;71611.38;10535076;28;20297;-68
2023/08/19 08:31:57;;;;;;;4.75;4.25;;;;;;;-145.68;37.19;71325.69;10535395;28;20493;-68
2023/08/19 08:36:58;;;;;;;5.80;3.83;;;;;;;-145.68;35.10;71131.94;10534631;28;20675;-68
2023/08/19 08:41:58;;;;;;;6.27;4.60;;;;;;;-145.68;35.68;71241.78;10535053;28;20858;-68
2023/08/19 08:47:00;;;;;;;6.60;3.95;;;;;;;-145.68;35.20;71201.84;10523355;28;20853;-68
2023/08/19 08:52:00;;;;;;;5.50;3.97;;;;;;;-145.68;36.05;71365.66;10491792;28;20756;-66
2023/08/19 08:57:02;;;;;;;6.82;4.15;;;;;;;-145.68;36.34;71389.63;10482919;28;20223;-67
2023/08/19 09:02:03;;;;;;;5.13;4.55;;;;;;;-145.68;37.33;71409.59;10469736;28;20196;-68
2023/08/19 09:07:08;;;;;;;9.10;4.55;;;;;;;-145.68;39.31;71699.28;10471706;28;20208;-66
2023/08/19 09:12:12;;;;;;;5.00;4.10;;;;;;;-145.68;39.13;71577.41;10451269;28;20187;-67
2023/08/19 09:17:13;;;;;;;6.82;4.13;;;;;;;-145.68;40.55;71619.38;10468728;28;20697;-67
2023/08/19 09:22:16;;;;;;;4.10;3.75;;;;;;;-145.68;39.91;71591.41;10459960;28;20244;-69
2023/08/19 09:27:24;;;;;;;7.07;4.45;;;;;;;-145.68;40.45;71717.28;10491436;28;20211;-68
2023/08/19 09:32:32;;;;;;;5.13;4.63;;;;;;;-145.68;42.09;71889.09;10491812;28;20561;-69
2023/08/19 09:37:33;;;;;;;9.77;4.70;;;;;;;-145.68;39.26;71623.38;10500144;28;20302;-70
2023/08/19 09:42:35;;;;;;;5.63;5.13;;;;;;;-145.68;39.32;71573.41;10498775;28;20198;-68
2023/08/19 09:47:48;;;;;;;4.88;4.47;;;;;;;-145.68;42.32;71599.41;10515253;28;20222;-68
2023/08/19 09:52:56;;;;;;;6.03;4.93;;;;;;;-145.68;43.99;71713.28;10536488;28;20183;-69
2023/08/19 09:57:56;;;;;;;6.97;4.65;;;;;;;-145.68;45.39;71857.13;10519445;28;20210;-68
2023/08/19 10:02:57;;;;;;;4.97;4.47;;;;;;;-145.68;40.23;71633.34;10520002;28;20202;-69
2023/08/19 10:08:03;;;;;;;8.75;4.95;;;;;;;-145.68;37.64;71373.66;10519133;28;20179;-69
2023/08/19 10:13:04;;;;;;;4.72;4.32;;;;;;;-145.68;39.69;71649.34;10529549;28;20206;-67
2023/08/19 10:18:09;;;;;;;5.35;4.30;;;;;;;-145.68;38.85;71603.38;10521994;28;20342;-69
2023/08/19 10:23:10;;;;;;;7.45;4.38;;;;;;;-145.68;38.98;71681.31;10521920;28;20214;-69
2023/08/19 10:28:25;;;;;;;8.30;4.40;;;;;;;-145.68;36.74;71449.56;10520661;28;20198;-69
2023/08/19 10:33:28;;;;;;;5.82;4.20;;;;;;;-145.68;35.39;71333.69;10540078;28;20224;-69
2023/08/19 10:38:56;;;;;;;4.32;3.92;;;;;;;-145.68;37.84;71599.41;10554884;28;20216;-68
2023/08/19 10:43:59;;;;;;;5.05;3.97;;;;;;;-145.68;36.21;71393.63;10581528;28;20240;-68
2023/08/19 10:49:03;;;;;;;6.22;3.85;;;;;;;-145.68;35.06;71205.84;10578006;28;20221;-70
2023/08/19 10:54:07;;;;;;;4.57;4.13;;;;;;;-145.68;35.42;71245.78;10538628;28;20205;-68
2023/08/19 10:59:09;;;;;;;5.63;3.97;;;;;;;-145.68;37.50;71493.50;10538385;28;20244;-68
2023/08/19 11:04:09;;;;;;;4.90;4.30;;;;;;;-145.68;37.56;71569.44;10520778;28;20700;-69
2023/08/19 11:09:10;;;;;;;4.95;4.47;;;;;;;-145.68;37.24;71431.56;10539235;28;20186;-70
2023/08/19 11:14:17;;;;;;;7.43;4.07;;;;;;;-145.68;36.27;71359.66;10539194;28;20614;-69
2023/08/19 11:19:18;;;;;;;4.28;3.97;;;;;;;-145.68;34.61;71189.84;10538509;28;20472;-68
2023/08/19 11:24:18;;;;;;;4.65;3.78;;;;;;;-145.68;34.13;71117.94;10538443;28;20206;-69
2023/08/19 11:29:19;;;;;;;5.30;4.50;;;;;;;-145.68;35.98;71499.50;10538576;28;20588;-69
2023/08/19 11:34:19;;;;;;;4.80;4.40;;;;;;;-145.68;35.67;71347.66;10538054;28;20452;-69
2023/08/19 11:39:19;;;;;;;7.97;4.67;;;;;;;-145.68;35.21;71433.56;10537858;28;20483;-69
2023/08/19 11:44:22;;;;;;;5.37;4.83;;;;;;;-145.68;34.66;71371.66;10562593;22;20506;-75
2023/08/19 11:49:26;;;;;;;5.88;5.10;;;;;;;-145.68;34.86;71219.81;10471796;28;20820;-75
2023/08/19 11:54:26;;;;;;;6.93;4.90;;;;;;;-145.68;34.47;71283.75;10474811;28;20210;-75
2023/08/19 11:59:32;;;;;;;9.95;5.43;;;;;;;-145.68;37.28;71609.38;10491687;28;20869;-74
2023/08/19 12:04:36;;;;;;;5.60;5.10;;;;;;;-145.68;40.17;71847.13;10492971;28;20192;-74
2023/08/19 12:09:37;;;;;;;6.10;5.00;;;;;;;-145.68;36.39;71417.59;10491874;28;20274;-75
2023/08/19 12:14:38;;;;;;;5.50;4.80;;;;;;;-145.68;34.27;71205.84;10492356;28;20242;-76
2023/08/19 12:19:39;;;;;;;6.78;5.38;;;;;;;-145.68;37.31;71637.34;10491130;28;20249;-74
2023/08/19 12:24:40;;;;;;;5.47;4.93;;;;;;;-145.68;36.32;71451.56;10492171;28;20251;-74
2023/08/19 12:29:41;;;;;;;5.38;4.88;;;;;;;-145.68;34.15;71311.72;10491217;28;20498;-76
2023/08/19 12:34:41;;;;;;;10.32;5.18;;;;;;;-145.68;36.92;71565.44;10491572;28;20187;-75
2023/08/19 12:39:42;;;;;;;8.55;5.40;;;;;;;-145.68;38.75;71737.25;10491715;28;20197;-74
2023/08/19 12:44:42;;;;;;;5.73;5.13;;;;;;;-145.68;37.40;71599.41;10490922;28;20227;-74
2023/08/19 12:50:18;;;;;;;5.77;4.57;;;;;;;-145.68;34.75;71299.72;10490893;28;20465;-76
2023/08/19 12:55:44;;;;;;;5.70;5.07;;;;;;;-145.68;34.46;71355.66;10463457;28;20477;-75
2023/08/19 13:00:45;;;;;;;6.15;4.90;;;;;;;-145.68;34.19;71261.78;10491294;28;20278;-75
2023/08/19 13:05:46;;;;;;;11.07;4.95;;;;;;;-145.68;36.47;71493.50;10490668;28;20677;-75
2023/08/19 13:10:46;;;;;;;7.35;5.40;;;;;;;-145.68;35.23;71333.69;10496952;28;20222;-76
2023/08/19 13:15:47;;;;;;;6.22;5.60;;;;;;;-145.68;35.30;71369.66;10499352;28;20214;-76
2023/08/19 13:20:47;;;;;;;5.75;5.25;;;;;;;-145.68;35.90;71415.59;10499126;28;20669;-76
2023/08/19 13:25:48;;;;;;;9.57;5.35;;;;;;;-145.68;36.03;71451.56;10498583;28;20194;-75
2023/08/19 13:30:48;;;;;;;8.88;5.35;;;;;;;-145.68;34.64;71285.75;10500328;28;20604;-75
2023/08/19 13:35:49;;;;;;;5.43;4.90;;;;;;;-145.68;34.91;71199.84;10500056;28;20679;-75
2023/08/19 13:40:49;;;;;;;8.20;5.13;;;;;;;-145.68;32.10;70838.28;10499958;28;20199;-76
2023/08/19 13:45:50;;;;;;;6.80;5.00;;;;;;;-145.68;32.46;70988.09;10498157;28;20464;-78
2023/08/19 13:50:50;;;;;;;6.17;5.57;;;;;;;-145.68;33.78;71193.84;10498053;28;20201;-76
2023/08/19 13:55:50;;;;;;;5.97;5.33;;;;;;;-145.68;33.94;71133.91;10497921;28;20480;-76
2023/08/19 14:00:51;;;;;;;6.83;5.30;;;;;;;-145.68;34.16;71285.75;10496580;28;20440;-75
2023/08/19 14:05:52;;;;;;;7.72;6.00;;;;;;;-145.68;34.24;71259.78;10497213;28;20447;-75
2023/08/19 14:10:52;;;;;;;7.20;5.88;;;;;;;-145.68;35.19;71387.63;10495831;28;20191;-77
2023/08/19 14:15:53;;;;;;;11.07;6.13;;;;;;;-145.68;33.12;71072.00;10495274;28;20215;-75
2023/08/19 14:20:53;;;;;;;8.20;5.65;;;;;;;-145.68;32.64;71145.91;10493852;28;20199;-77
2023/08/19 14:25:53;;;;;;;7.25;5.70;;;;;;;-145.68;32.33;71078.00;10494855;28;20659;-76
2023/08/19 14:30:54;;;;;;;5.90;5.40;;;;;;;-145.68;31.27;70868.25;10495982;28;20183;-76
2023/08/19 14:35:54;;;;;;;5.45;4.95;;;;;;;-145.68;29.67;70568.63;10496488;28;20479;-76
2023/08/19 14:40:55;;;;;;;7.10;4.73;;;;;;;-145.68;30.08;70774.38;10496028;28;20195;-77
2023/08/19 14:45:55;;;;;;;7.93;4.80;;;;;;;-145.68;30.13;70820.31;10494047;28;20463;-76
2023/08/19 14:50:56;;;;;;;8.73;5.20;;;;;;;-145.68;31.21;70946.16;10477862;28;20544;-76
2023/08/19 14:55:56;;;;;;;8.10;4.80;;;;;;;-145.68;31.00;70874.25;10476479;28;20485;-75
2023/08/19 15:00:56;;;;;;;6.77;5.07;;;;;;;-145.68;31.16;71032.03;10492189;28;20202;-76
2023/08/19 15:05:57;;;;;;;6.70;5.30;;;;;;;-145.68;33.82;71219.81;10494617;28;20433;-76
2023/08/19 15:10:57;;;;;;;7.43;5.07;;;;;;;-145.68;32.22;71066.00;10492034;28;20928;-75
2023/08/19 15:15:57;;;;;;;6.73;5.13;;;;;;;-145.68;33.08;71293.72;10492784;28;20206;-75
2023/08/19 15:20:58;;;;;;;7.03;4.80;;;;;;;-145.68;30.19;70824.31;10491202;28;20453;-75
2023/08/19 15:25:58;;;;;;;8.00;5.43;;;;;;;-145.68;28.52;70516.72;10492120;28;20969;-75
2023/08/19 15:30:59;;;;;;;6.37;4.87;;;;;;;-145.68;28.46;70646.53;10492831;28;20552;-76
2023/08/19 15:35:59;;;;;;;7.77;4.93;;;;;;;-145.68;32.00;71093.97;10491584;28;20526;-77
2023/08/19 15:40:59;;;;;;;6.57;4.60;;;;;;;-145.68;32.99;71119.94;10493661;28;20443;-75
2023/08/19 15:46:00;;;;;;;5.93;5.07;;;;;;;-145.68;31.20;71026.06;10506344;28;20477;-75
2023/08/19 15:51:00;;;;;;;7.13;4.67;;;;;;;-145.68;31.73;71026.06;10490974;28;21261;-75
2023/08/19 15:56:01;;;;;;;8.18;5.25;;;;;;;-145.68;33.16;71165.88;10492638;28;20476;-75
2023/08/19 16:01:01;;;;;;;8.63;5.63;;;;;;;-145.68;32.62;71089.97;10489330;28;20202;-74
2023/08/19 16:06:02;;;;;;;7.45;4.65;;;;;;;-145.68;32.16;70990.09;10457739;28;20296;-76
2023/08/19 16:11:04;;;;;;;7.45;4.90;;;;;;;-145.68;32.72;71153.91;10486482;28;20179;-75
2023/08/19 16:16:05;;;;;;;5.57;4.93;;;;;;;-145.68;32.51;71121.94;10490962;28;20622;-76
2023/08/19 16:21:05;;;;;;;11.47;5.47;;;;;;;-145.68;30.16;71030.06;10481597;28;20191;-77
2023/08/19 16:26:06;;;;;;;5.68;3.63;;;;;;;-145.68;30.57;71117.94;10486464;28;20451;-76
2023/08/19 16:31:06;;;;;;;5.43;3.80;;;;;;;-145.68;32.28;71249.78;10486459;28;20519;-76
2023/08/19 16:36:07;;;;;;;9.07;4.53;;;;;;;-145.68;33.92;71361.66;10467803;28;20217;-77
2023/08/19 16:41:09;;;;;;;8.03;3.80;;;;;;;-145.68;32.36;71211.84;10466804;28;20191;-76
2023/08/19 16:46:10;;;;;;;5.20;3.25;;;;;;;-145.68;32.18;71245.78;10461225;28;20879;-77
2023/08/19 16:51:10;;;;;;;8.57;3.65;;;;;;;-145.68;33.55;71365.66;10488548;28;20283;-76
2023/08/19 16:56:11;;;;;;;6.28;3.90;;;;;;;-145.68;34.22;71365.66;10480899;28;20639;-76
2023/08/19 17:01:11;;;;;;;7.10;4.50;;;;;;;-145.68;35.47;71401.63;10488225;28;20183;-76
2023/08/19 17:06:14;;;;;;;8.07;4.70;;;;;;;-145.68;37.43;71441.56;10476354;28;20564;-76
2023/08/19 17:11:14;;;;;;;8.82;7.03;;;;;;;-145.68;36.78;71499.50;10475294;28;20240;-76
2023/08/19 17:16:15;;;;;;;14.02;6.30;;;;;;;-145.68;38.95;71657.34;10473438;28;20257;-76
2023/08/19 17:21:15;;;;;;;7.88;5.50;;;;;;;-145.68;40.91;71705.28;10476388;28;20373;-76
2023/08/19 17:26:16;;;;;;;14.38;9.85;;;;;;;-145.68;41.67;71797.19;10472126;28;20197;-76
2023/08/19 17:31:16;;;;;;;12.38;8.70;;;;;;;-145.68;42.52;71833.16;10487307;28;20281;-75
2023/08/19 17:36:16;;;;;;;7.70;4.78;;;;;;;-145.68;46.01;72072.91;10482944;28;20230;-76
2023/08/19 17:41:17;;;;;;;7.03;4.72;;;;;;;-145.68;48.19;72244.75;10459790;28;20562;-75
2023/08/19 17:46:17;;;;;;;11.30;4.80;;;;;;;-145.68;48.33;72198.78;10477449;28;20223;-75
2023/08/19 17:51:17;;;;;;;10.95;5.10;;;;;;;-145.68;48.60;72234.75;10476153;28;20195;-75
2023/08/19 17:56:18;;;;;;;25.42;18.95;;;;;;;-145.68;50.92;72364.63;10480917;28;20250;-75
2023/08/19 18:01:18;;;;;;;20.17;12.68;;;;;;;-145.68;52.86;72426.59;10472956;28;20194;-75
2023/08/19 18:06:21;;;;;;;14.35;5.53;;;;;;;-145.68;52.93;72410.59;10485704;28;20666;-75
2023/08/19 18:11:21;;;;;;;9.05;5.35;;;;;;;-145.68;53.70;72464.56;10484518;28;20187;-75
2023/08/19 18:16:21;;;;;;;8.15;5.80;;;;;;;-145.68;53.14;72444.56;10484333;28;20706;-75
2023/08/19 18:21:22;;;;;;;7.95;6.13;;;;;;;-145.68;53.67;72456.56;10483375;28;20179;-75
2023/08/19 18:26:22;;;;;;;6.80;5.85;;;;;;;-145.68;55.11;72494.53;10485549;28;20245;-74
2023/08/19 18:31:23;;;;;;;10.75;6.50;;;;;;;-145.68;55.44;72506.50;10483393;28;20208;-75
2023/08/19 18:36:24;;;;;;;13.02;6.50;;;;;;;-145.68;56.68;72532.50;10455747;28;20226;-74
2023/08/19 18:41:24;;;;;;;13.70;6.50;;;;;;;-145.68;56.78;72542.50;10453699;28;20257;-74
2023/08/19 18:46:25;;;;;;;10.82;6.85;;;;;;;-145.68;56.86;72560.47;10452684;28;20238;-74
2023/08/19 18:51:25;;;;;;;10.27;6.75;;;;;;;-145.68;57.77;72580.47;10453084;28;20218;-75
2023/08/19 18:56:26;;;;;;;10.95;6.95;;;;;;;-145.68;57.79;72602.44;10452456;28;20757;-75
2023/08/19 19:01:26;;;;;;;9.10;7.28;;;;;;;-145.68;59.12;72614.44;10452672;28;20199;-75
2023/08/19 19:06:27;;;;;;;9.25;6.95;;;;;;;-145.68;59.62;72644.41;10452334;28;20183;-75
2023/08/19 19:11:28;;;;;;;13.15;7.40;;;;;;;-145.68;60.39;72680.38;10452522;28;20213;-74
2023/08/19 19:16:28;;;;;;;9.57;7.13;;;;;;;-145.68;61.66;72708.34;10451823;28;20222;-74
2023/08/19 19:21:29;;;;;;;15.13;7.60;;;;;;;-145.68;62.52;72716.34;10434663;28;20191;-74
2023/08/19 19:26:31;;;;;;;11.82;7.00;;;;;;;-145.68;63.13;72740.31;10451277;28;20196;-74
2023/08/19 19:31:31;;;;;;;9.10;8.20;;;;;;;-145.68;63.97;72752.31;10451859;28;20528;-75
2023/08/19 19:36:32;;;;;;;10.20;8.05;;;;;;;-145.68;64.81;72768.31;10450989;28;20243;-74
2023/08/19 19:41:32;;;;;;;9.45;7.68;;;;;;;-145.68;65.56;72786.28;10451306;28;20183;-74
2023/08/19 19:46:33;;;;;;;9.73;8.05;;;;;;;-145.68;66.47;72804.28;10447655;28;20240;-75
2023/08/19 19:51:33;;;;;;;9.85;7.78;;;;;;;-145.68;67.26;72812.28;10450512;28;20558;-74
2023/08/19 19:56:34;;;;;;;9.75;7.95;;;;;;;-145.68;67.93;72836.25;10450510;28;20247;-74
2023/08/19 20:01:34;;;;;;;9.02;7.45;;;;;;;-145.68;68.84;72850.25;10450388;28;20260;-74
2023/08/19 20:06:34;;;;;;;9.63;7.70;;;;;;;-145.68;69.36;72860.22;10450016;28;20190;-75
2023/08/19 20:11:35;;;;;;;9.45;7.68;;;;;;;-145.68;69.16;72870.22;10448287;28;20660;-75
2023/08/19 20:16:35;;;;;;;9.40;8.05;;;;;;;-145.68;69.29;72870.22;10460138;28;20218;-74
2023/08/19 20:21:36;;;;;;;17.05;8.27;;;;;;;-145.68;69.10;72866.22;10490951;28;20256;-74
2023/08/19 20:26:39;;;;;;;13.20;8.38;;;;;;;-145.68;69.50;72876.22;10490123;28;20191;-75
2023/08/19 20:31:40;;;;;;;11.35;7.80;;;;;;;-145.68;70.75;72898.19;10491730;28;20191;-74
2023/08/19 20:36:40;;;;;;;9.43;8.20;;;;;;;-145.68;71.23;72906.19;10486145;28;20222;-73
2023/08/19 20:41:41;;;;;;;10.00;8.32;;;;;;;-145.68;71.51;72908.19;10526392;28;20186;-74
2023/08/19 20:46:41;;;;;;;10.25;9.23;;;;;;;-145.68;72.82;72934.19;10532909;28;20234;-74
2023/08/19 20:51:42;;;;;;;13.88;9.07;;;;;;;-145.68;73.90;72946.16;10533979;28;20193;-74
2023/08/19 20:56:42;;;;;;;13.88;9.70;;;;;;;-145.68;73.38;72928.19;10533629;28;20233;-75
2023/08/19 21:01:43;;;;;;;13.60;8.55;;;;;;;-145.68;73.34;72920.19;10533674;28;20190;-74
2023/08/19 21:06:43;;;;;;;10.93;8.60;;;;;;;-145.68;74.29;72944.16;10531178;28;20190;-74
2023/08/19 21:11:43;;;;;;;13.15;9.27;;;;;;;-145.68;75.21;72954.16;10489454;28;20294;-75
2023/08/19 21:16:45;;;;;;;13.52;8.07;;;;;;;-145.68;75.50;72948.16;10489977;28;20238;-74
2023/08/19 21:21:45;;;;;;;12.13;8.40;;;;;;;-145.68;75.30;72938.16;10461577;28;20192;-75
2023/08/19 21:26:45;;;;;;;9.43;8.38;;;;;;;-145.68;75.80;72950.16;10449040;28;20184;-74
2023/08/19 21:31:46;;;;;;;12.38;8.70;;;;;;;-145.68;76.36;72954.16;10487231;28;20651;-75
2023/08/19 21:36:46;;;;;;;13.23;9.23;;;;;;;-145.68;77.02;72962.16;10498616;28;20284;-74
2023/08/19 21:41:47;;;;;;;14.00;8.43;;;;;;;-145.68;78.07;72970.16;10497386;28;20557;-74
2023/08/19 21:46:47;;;;;;;13.75;9.38;;;;;;;-145.68;78.18;72968.16;10479531;28;20761;-74
2023/08/19 21:51:47;;;;;;;12.02;8.73;;;;;;;-145.68;78.59;72974.16;10473811;28;20199;-74
2023/08/19 21:56:48;;;;;;;13.50;9.15;;;;;;;-145.68;79.09;72976.16;10456380;28;20539;-74
2023/08/19 22:01:48;;;;;;;14.35;9.48;;;;;;;-145.68;79.34;72990.13;10456502;28;20672;-74
2023/08/19 22:06:48;;;;;;;10.38;9.27;;;;;;;-145.68;79.74;72994.13;10456816;28;20270;-73
2023/08/19 22:11:49;;;;;;;9.57;8.60;;;;;;;-145.68;79.93;72996.13;10496529;28;20203;-74
2023/08/19 22:16:49;;;;;;;13.98;8.75;;;;;;;-145.68;79.02;72972.16;10496668;28;20575;-74
2023/08/19 22:21:50;;;;;;;12.32;9.55;;;;;;;-145.68;78.02;72958.16;10463838;28;20219;-74
2023/08/19 22:26:50;;;;;;;13.02;8.73;;;;;;;-145.68;77.62;72964.16;10454881;28;20618;-75
2023/08/19 22:31:50;;;;;;;10.13;8.88;;;;;;;-145.68;77.44;72952.16;10455115;28;20248;-75
2023/08/19 22:36:51;;;;;;;10.50;8.27;;;;;;;-145.68;76.28;72940.16;10454716;28;20216;-74
2023/08/19 22:41:51;;;;;;;12.05;9.40;;;;;;;-145.68;76.30;72954.16;10454608;28;20195;-75
2023/08/19 22:46:51;;;;;;;12.88;9.23;;;;;;;-145.68;77.08;72960.16;10454282;28;20239;-75
2023/08/19 22:51:52;;;;;;;10.48;9.30;;;;;;;-145.68;78.51;72988.13;10478788;28;20195;-76
2023/08/19 22:56:52;;;;;;;11.07;9.68;;;;;;;-145.68;77.66;72966.16;10494993;28;20721;-75
2023/08/19 23:01:53;;;;;;;10.70;8.98;;;;;;;-145.68;77.14;72976.16;10494409;28;20200;-74
2023/08/19 23:06:53;;;;;;;12.55;9.05;;;;;;;-145.68;74.81;72948.16;10494943;28;20187;-75
2023/08/19 23:11:53;;;;;;;14.32;9.63;;;;;;;-145.68;76.75;72980.13;10493996;28;20674;-75
2023/08/19 23:16:54;;;;;;;9.48;8.40;;;;;;;-145.68;74.41;72962.16;10494509;28;20265;-75
2023/08/19 23:21:54;;;;;;;11.27;8.93;;;;;;;-145.68;76.99;73002.13;10493521;28;20286;-74
2023/08/19 23:26:55;;;;;;;10.52;9.27;;;;;;;-145.68;78.57;73008.13;10494307;28;20179;-74
2023/08/19 23:31:55;;;;;;;12.48;9.32;;;;;;;-145.68;76.71;72996.13;10493637;28;20183;-75